Terminal Aerodrome Forecast
Issued by NWS Blacksburg, VA

Home | Current Version | Previous Version | Text Only | Print | Product List | Glossary On
Versions: 1 2 3 4 5 6 7 8 9 10 11 12 13 14 15 16 17 18 19 20 21 22 23 24 25 26
000
FTUS41 KRNK 251139
TAFROA
TAF
KROA 251139Z 2512/2612 VRB03KT P6SM -RA OVC060
     FM251400 09004KT P6SM -RA OVC050
     FM251700 11005KT 5SM -RA BR OVC025
     FM252300 10005KT 5SM -RA SCT009 OVC015
     FM260400 10004KT 3SM -RADZ BR OVC007=

USA.gov is the U.S. government's official web portal to all federal, state and local government web resources and services.